sensor_id;sensor_type;location;lat;lon;timestamp;pressure;altitude;pressure_sealevel;temperature;humidity
73453;BME280;61687;56.232;43.854;2022-09-02T00:00:23;100076.22;;;8.46;72.37
73453;BME280;61687;56.232;43.854;2022-09-02T00:02:49;100069.19;;;8.45;72.24
73453;BME280;61687;56.232;43.854;2022-09-02T00:05:16;100063.66;;;8.41;72.38
73453;BME280;61687;56.232;43.854;2022-09-02T00:07:42;100062.88;;;8.41;72.50
73453;BME280;61687;56.232;43.854;2022-09-02T00:10:08;100072.56;;;8.38;72.30
73453;BME280;61687;56.232;43.854;2022-09-02T00:12:34;100070.53;;;8.35;72.62
73453;BME280;61687;56.232;43.854;2022-09-02T00:15:00;100074.78;;;8.33;72.55
73453;BME280;61687;56.232;43.854;2022-09-02T00:17:26;100072.00;;;8.29;72.52
73453;BME280;61687;56.232;43.854;2022-09-02T00:19:52;100074.25;;;8.27;72.65
73453;BME280;61687;56.232;43.854;2022-09-02T00:22:19;100071.91;;;8.25;72.53
73453;BME280;61687;56.232;43.854;2022-09-02T00:24:45;100073.81;;;8.25;72.80
73453;BME280;61687;56.232;43.854;2022-09-02T00:27:11;100064.78;;;8.21;72.75
73453;BME280;61687;56.232;43.854;2022-09-02T00:29:37;100066.63;;;8.16;72.84
73453;BME280;61687;56.232;43.854;2022-09-02T00:32:04;100066.63;;;8.16;72.83
73453;BME280;61687;56.232;43.854;2022-09-02T00:34:30;100053.72;;;8.13;73.01
73453;BME280;61687;56.232;43.854;2022-09-02T00:36:57;100060.75;;;8.14;73.17
73453;BME280;61687;56.232;43.854;2022-09-02T00:39:23;100065.41;;;8.14;72.87
73453;BME280;61687;56.232;43.854;2022-09-02T00:41:50;100066.56;;;8.13;73.03
73453;BME280;61687;56.232;43.854;2022-09-02T00:44:18;100070.81;;;8.10;73.03
73453;BME280;61687;56.232;43.854;2022-09-02T00:46:45;100075.03;;;8.08;73.01
73453;BME280;61687;56.232;43.854;2022-09-02T00:49:17;100066.84;;;8.08;73.16
73453;BME280;61687;56.232;43.854;2022-09-02T00:52:19;100060.50;;;8.04;73.36
73453;BME280;61687;56.232;43.854;2022-09-02T00:54:49;100059.72;;;8.03;73.25
73453;BME280;61687;56.232;43.854;2022-09-02T00:57:18;100058.50;;;8.00;73.28
73453;BME280;61687;56.232;43.854;2022-09-02T01:02:32;100067.03;;;7.99;73.35
73453;BME280;61687;56.232;43.854;2022-09-02T01:05:00;100061.94;;;7.97;73.45
73453;BME280;61687;56.232;43.854;2022-09-02T01:07:32;100059.56;;;7.96;73.41
73453;BME280;61687;56.232;43.854;2022-09-02T01:10:06;100059.13;;;7.94;73.52
73453;BME280;61687;56.232;43.854;2022-09-02T01:12:34;100060.63;;;7.91;73.49
73453;BME280;61687;56.232;43.854;2022-09-02T01:15:01;100050.06;;;7.90;73.58
73453;BME280;61687;56.232;43.854;2022-09-02T01:17:28;100047.69;;;7.88;73.69
73453;BME280;61687;56.232;43.854;2022-09-02T01:20:01;100048.50;;;7.88;73.69
73453;BME280;61687;56.232;43.854;2022-09-02T01:22:30;100045.41;;;7.90;73.67
73453;BME280;61687;56.232;43.854;2022-09-02T01:25:01;100050.41;;;7.88;74.00
73453;BME280;61687;56.232;43.854;2022-09-02T01:27:29;100052.81;;;7.90;73.90
73453;BME280;61687;56.232;43.854;2022-09-02T01:29:57;100061.00;;;7.90;73.95
73453;BME280;61687;56.232;43.854;2022-09-02T01:32:26;100062.56;;;7.91;73.88
73453;BME280;61687;56.232;43.854;2022-09-02T01:34:52;100061.72;;;7.86;73.98
73453;BME280;61687;56.232;43.854;2022-09-02T01:37:19;100057.31;;;7.82;74.01
73453;BME280;61687;56.232;43.854;2022-09-02T01:39:46;100051.41;;;7.80;74.17
73453;BME280;61687;56.232;43.854;2022-09-02T01:42:13;100049.84;;;7.79;74.02
73453;BME280;61687;56.232;43.854;2022-09-02T01:44:41;100059.16;;;7.78;74.07
73453;BME280;61687;56.232;43.854;2022-09-02T01:47:12;100059.50;;;7.76;74.20
73453;BME280;61687;56.232;43.854;2022-09-02T01:49:39;100052.81;;;7.73;74.06
73453;BME280;61687;56.232;43.854;2022-09-02T01:52:05;100062.50;;;7.71;74.23
73453;BME280;61687;56.232;43.854;2022-09-02T01:54:32;100064.72;;;7.65;74.38
73453;BME280;61687;56.232;43.854;2022-09-02T01:56:58;100061.13;;;7.61;74.34
73453;BME280;61687;56.232;43.854;2022-09-02T01:59:24;100062.59;;;7.58;74.20
73453;BME280;61687;56.232;43.854;2022-09-02T02:01:52;100061.03;;;7.57;74.47
73453;BME280;61687;56.232;43.854;2022-09-02T02:04:19;100058.66;;;7.56;74.59
73453;BME280;61687;56.232;43.854;2022-09-02T02:06:46;100065.25;;;7.55;74.53
73453;BME280;61687;56.232;43.854;2022-09-02T02:09:16;100062.78;;;7.50;74.68
73453;BME280;61687;56.232;43.854;2022-09-02T02:11:44;100066.66;;;7.49;74.62
73453;BME280;61687;56.232;43.854;2022-09-02T02:14:14;100067.78;;;7.48;74.61
73453;BME280;61687;56.232;43.854;2022-09-02T02:16:46;100071.66;;;7.47;74.79
73453;BME280;61687;56.232;43.854;2022-09-02T02:19:13;100071.31;;;7.48;74.84
73453;BME280;61687;56.232;43.854;2022-09-02T02:21:39;100070.88;;;7.46;75.00
73453;BME280;61687;56.232;43.854;2022-09-02T02:24:05;100066.50;;;7.41;75.12
73453;BME280;61687;56.232;43.854;2022-09-02T02:26:34;100070.69;;;7.39;74.92
73453;BME280;61687;56.232;43.854;2022-09-02T02:29:02;100071.50;;;7.39;74.78
73453;BME280;61687;56.232;43.854;2022-09-02T02:31:29;100071.50;;;7.39;75.06
73453;BME280;61687;56.232;43.854;2022-09-02T02:33:55;100069.91;;;7.38;75.05
73453;BME280;61687;56.232;43.854;2022-09-02T02:36:21;100064.81;;;7.37;75.05
73453;BME280;61687;56.232;43.854;2022-09-02T02:38:48;100078.81;;;7.35;75.29
73453;BME280;61687;56.232;43.854;2022-09-02T02:41:14;100082.31;;;7.36;75.07
73453;BME280;61687;56.232;43.854;2022-09-02T02:43:40;100073.78;;;7.37;74.93
73453;BME280;61687;56.232;43.854;2022-09-02T02:46:08;100076.94;;;7.39;75.09
73453;BME280;61687;56.232;43.854;2022-09-02T02:48:36;100077.06;;;7.43;75.15
73453;BME280;61687;56.232;43.854;2022-09-02T02:51:03;100082.22;;;7.48;75.21
73453;BME280;61687;56.232;43.854;2022-09-02T02:53:29;100080.72;;;7.51;75.02
73453;BME280;61687;56.232;43.854;2022-09-02T02:55:58;100082.78;;;7.54;74.99
73453;BME280;61687;56.232;43.854;2022-09-02T02:58:24;100083.22;;;7.56;75.01
73453;BME280;61687;56.232;43.854;2022-09-02T03:00:50;100087.16;;;7.58;75.00
73453;BME280;61687;56.232;43.854;2022-09-02T03:03:18;100078.63;;;7.60;74.96
73453;BME280;61687;56.232;43.854;2022-09-02T03:05:50;100079.06;;;7.62;74.75
73453;BME280;61687;56.232;43.854;2022-09-02T03:08:17;100081.50;;;7.67;74.63
73453;BME280;61687;56.232;43.854;2022-09-02T03:10:48;100078.44;;;7.69;74.70
73453;BME280;61687;56.232;43.854;2022-09-02T03:13:24;100085.47;;;7.70;74.58
73453;BME280;61687;56.232;43.854;2022-09-02T03:15:51;100078.50;;;7.72;74.56
73453;BME280;61687;56.232;43.854;2022-09-02T03:18:18;100076.31;;;7.78;74.48
73453;BME280;61687;56.232;43.854;2022-09-02T03:20:46;100071.28;;;7.80;74.43
73453;BME280;61687;56.232;43.854;2022-09-02T03:23:13;100081.50;;;7.83;74.14
73453;BME280;61687;56.232;43.854;2022-09-02T03:25:44;100072.97;;;7.85;73.96
73453;BME280;61687;56.232;43.854;2022-09-02T03:28:28;100076.66;;;7.93;74.04
73453;BME280;61687;56.232;43.854;2022-09-02T03:30:56;100085.34;;;7.98;73.72
73453;BME280;61687;56.232;43.854;2022-09-02T03:33:24;100078.38;;;8.01;73.64
73453;BME280;61687;56.232;43.854;2022-09-02T03:35:50;100092.13;;;8.05;73.63
73453;BME280;61687;56.232;43.854;2022-09-02T03:38:16;100091.75;;;8.06;73.41
73453;BME280;61687;56.232;43.854;2022-09-02T03:40:43;100086.38;;;8.10;73.32
73453;BME280;61687;56.232;43.854;2022-09-02T03:43:09;100086.47;;;8.13;73.31
73453;BME280;61687;56.232;43.854;2022-09-02T03:45:36;100093.22;;;8.20;73.16
73453;BME280;61687;56.232;43.854;2022-09-02T03:48:07;100094.47;;;8.22;73.00
73453;BME280;61687;56.232;43.854;2022-09-02T03:50:39;100089.72;;;8.19;73.08
73453;BME280;61687;56.232;43.854;2022-09-02T03:53:08;100094.88;;;8.24;72.93
73453;BME280;61687;56.232;43.854;2022-09-02T03:55:36;100093.03;;;8.28;72.85
73453;BME280;61687;56.232;43.854;2022-09-02T03:58:03;100105.25;;;8.35;72.78
73453;BME280;61687;56.232;43.854;2022-09-02T04:00:29;100098.63;;;8.36;72.89
73453;BME280;61687;56.232;43.854;2022-09-02T04:03:01;100094.84;;;8.40;72.65
73453;BME280;61687;56.232;43.854;2022-09-02T04:05:29;100103.28;;;8.51;72.64
73453;BME280;61687;56.232;43.854;2022-09-02T04:07:58;100109.25;;;8.57;72.49
73453;BME280;61687;56.232;43.854;2022-09-02T04:10:25;100102.28;;;8.59;72.07
73453;BME280;61687;56.232;43.854;2022-09-02T04:12:52;100105.88;;;8.64;72.12
73453;BME280;61687;56.232;43.854;2022-09-02T04:15:18;100107.09;;;8.66;71.96
73453;BME280;61687;56.232;43.854;2022-09-02T04:17:46;100106.31;;;8.66;71.97
73453;BME280;61687;56.232;43.854;2022-09-02T04:20:14;100105.94;;;8.67;72.00
73453;BME280;61687;56.232;43.854;2022-09-02T04:22:41;100105.72;;;8.76;71.53
73453;BME280;61687;56.232;43.854;2022-09-02T04:25:08;100098.84;;;8.82;71.60
73453;BME280;61687;56.232;43.854;2022-09-02T04:27:36;100090.38;;;8.91;71.33
73453;BME280;61687;56.232;43.854;2022-09-02T04:30:05;100092.13;;;8.99;71.34
73453;BME280;61687;56.232;43.854;2022-09-02T04:32:34;100082.69;;;8.97;71.13
73453;BME280;61687;56.232;43.854;2022-09-02T04:35:02;100096.50;;;9.04;71.22
73453;BME280;61687;56.232;43.854;2022-09-02T04:37:29;100090.44;;;9.14;71.15
73453;BME280;61687;56.232;43.854;2022-09-02T04:39:56;100087.91;;;9.25;70.79
73453;BME280;61687;56.232;43.854;2022-09-02T04:42:23;100086.84;;;9.34;70.50
73453;BME280;61687;56.232;43.854;2022-09-02T04:44:51;100085.00;;;9.38;70.18
73453;BME280;61687;56.232;43.854;2022-09-02T04:47:20;100101.53;;;9.45;70.00
73453;BME280;61687;56.232;43.854;2022-09-02T04:49:47;100095.28;;;9.44;69.86
73453;BME280;61687;56.232;43.854;2022-09-02T04:52:15;100098.47;;;9.50;69.52
73453;BME280;61687;56.232;43.854;2022-09-02T04:54:41;100106.38;;;9.55;69.64
73453;BME280;61687;56.232;43.854;2022-09-02T04:57:07;100105.69;;;9.62;69.57
73453;BME280;61687;56.232;43.854;2022-09-02T04:59:34;100105.41;;;9.67;69.38
73453;BME280;61687;56.232;43.854;2022-09-02T05:02:08;100102.78;;;9.74;69.23
73453;BME280;61687;56.232;43.854;2022-09-02T05:04:35;100121.75;;;9.87;69.33
73453;BME280;61687;56.232;43.854;2022-09-02T05:07:03;100109.31;;;9.93;68.55
73453;BME280;61687;56.232;43.854;2022-09-02T05:09:34;100116.38;;;9.94;68.50
73453;BME280;61687;56.232;43.854;2022-09-02T05:12:04;100115.63;;;9.97;68.45
73453;BME280;61687;56.232;43.854;2022-09-02T05:15:02;100106.75;;;10.04;68.42
73453;BME280;61687;56.232;43.854;2022-09-02T05:17:31;100101.38;;;10.11;68.29
73453;BME280;61687;56.232;43.854;2022-09-02T05:20:00;100103.47;;;10.22;68.19
73453;BME280;61687;56.232;43.854;2022-09-02T05:22:26;100105.50;;;10.28;67.60
73453;BME280;61687;56.232;43.854;2022-09-02T05:24:56;100102.81;;;10.32;67.89
73453;BME280;61687;56.232;43.854;2022-09-02T05:27:22;100104.56;;;10.44;67.68
73453;BME280;61687;56.232;43.854;2022-09-02T05:29:49;100110.88;;;10.48;66.81
73453;BME280;61687;56.232;43.854;2022-09-02T05:32:18;100123.53;;;10.56;66.67
73453;BME280;61687;56.232;43.854;2022-09-02T05:34:47;100110.44;;;10.77;66.41
73453;BME280;61687;56.232;43.854;2022-09-02T05:37:13;100107.88;;;10.91;66.03
73453;BME280;61687;56.232;43.854;2022-09-02T05:39:39;100119.84;;;11.13;65.41
73453;BME280;61687;56.232;43.854;2022-09-02T05:42:06;100115.31;;;11.28;64.19
73453;BME280;61687;56.232;43.854;2022-09-02T05:44:34;100124.47;;;11.43;64.17
73453;BME280;61687;56.232;43.854;2022-09-02T05:47:02;100122.19;;;11.49;63.63
73453;BME280;61687;56.232;43.854;2022-09-02T05:49:28;100126.09;;;11.48;63.53
73453;BME280;61687;56.232;43.854;2022-09-02T05:52:12;100117.47;;;11.50;63.11
73453;BME280;61687;56.232;43.854;2022-09-02T05:54:41;100134.41;;;11.59;62.46
73453;BME280;61687;56.232;43.854;2022-09-02T05:57:13;100125.03;;;11.60;62.34
73453;BME280;61687;56.232;43.854;2022-09-02T05:59:50;100125.09;;;11.71;62.39
73453;BME280;61687;56.232;43.854;2022-09-02T06:02:23;100125.66;;;11.91;61.79
73453;BME280;61687;56.232;43.854;2022-09-02T06:04:51;100126.56;;;12.06;60.83
73453;BME280;61687;56.232;43.854;2022-09-02T06:07:21;100122.31;;;12.12;60.69
73453;BME280;61687;56.232;43.854;2022-09-02T06:09:50;100125.88;;;12.24;60.56
73453;BME280;61687;56.232;43.854;2022-09-02T06:12:18;100124.81;;;12.39;59.67
73453;BME280;61687;56.232;43.854;2022-09-02T06:14:47;100125.25;;;12.52;59.29
73453;BME280;61687;56.232;43.854;2022-09-02T06:17:14;100127.66;;;12.61;59.17
73453;BME280;61687;56.232;43.854;2022-09-02T06:19:51;100133.13;;;12.57;58.32
73453;BME280;61687;56.232;43.854;2022-09-02T06:22:17;100126.84;;;12.53;58.87
73453;BME280;61687;56.232;43.854;2022-09-02T06:24:45;100125.31;;;12.63;58.65
73453;BME280;61687;56.232;43.854;2022-09-02T06:27:17;100129.28;;;12.73;58.40
73453;BME280;61687;56.232;43.854;2022-09-02T06:29:46;100136.00;;;12.90;58.14
73453;BME280;61687;56.232;43.854;2022-09-02T06:32:17;100130.91;;;12.92;57.98
73453;BME280;61687;56.232;43.854;2022-09-02T06:34:43;100135.63;;;12.92;57.47
73453;BME280;61687;56.232;43.854;2022-09-02T06:37:09;100138.78;;;12.86;57.50
73453;BME280;61687;56.232;43.854;2022-09-02T06:39:38;100136.41;;;12.88;56.77
73453;BME280;61687;56.232;43.854;2022-09-02T06:42:10;100145.88;;;12.98;56.11
73453;BME280;61687;56.232;43.854;2022-09-02T06:44:44;100147.44;;;12.99;55.60
73453;BME280;61687;56.232;43.854;2022-09-02T06:47:10;100139.59;;;13.01;55.08
73453;BME280;61687;56.232;43.854;2022-09-02T06:49:36;100150.19;;;12.96;55.48
73453;BME280;61687;56.232;43.854;2022-09-02T06:52:02;100140.72;;;12.86;54.79
73453;BME280;61687;56.232;43.854;2022-09-02T06:54:34;100150.47;;;12.69;53.82
73453;BME280;61687;56.232;43.854;2022-09-02T06:57:13;100151.28;;;12.73;55.20
73453;BME280;61687;56.232;43.854;2022-09-02T06:59:39;100152.50;;;12.83;55.22
73453;BME280;61687;56.232;43.854;2022-09-02T07:02:05;100151.34;;;12.87;54.49
73453;BME280;61687;56.232;43.854;2022-09-02T07:04:32;100147.03;;;12.86;54.31
73453;BME280;61687;56.232;43.854;2022-09-02T07:07:19;100149.78;;;12.86;54.47
73453;BME280;61687;56.232;43.854;2022-09-02T07:09:57;100159.25;;;12.96;54.61
73453;BME280;61687;56.232;43.854;2022-09-02T07:12:24;100164.34;;;12.98;54.42
73453;BME280;61687;56.232;43.854;2022-09-02T07:14:59;100156.44;;;12.85;54.12
73453;BME280;61687;56.232;43.854;2022-09-02T07:17:31;100150.50;;;12.76;54.13
73453;BME280;61687;56.232;43.854;2022-09-02T07:20:03;100155.25;;;12.90;54.17
73453;BME280;61687;56.232;43.854;2022-09-02T07:22:36;100164.72;;;13.00;53.83
73453;BME280;61687;56.232;43.854;2022-09-02T07:25:03;100162.75;;;12.93;53.45
73453;BME280;61687;56.232;43.854;2022-09-02T07:27:30;100170.59;;;12.87;54.09
73453;BME280;61687;56.232;43.854;2022-09-02T07:29:56;100162.34;;;12.87;53.92
73453;BME280;61687;56.232;43.854;2022-09-02T07:32:24;100163.88;;;12.78;53.16
73453;BME280;61687;56.232;43.854;2022-09-02T07:34:51;100170.16;;;12.74;52.77
73453;BME280;61687;56.232;43.854;2022-09-02T07:37:17;100181.91;;;12.75;52.64
73453;BME280;61687;56.232;43.854;2022-09-02T07:39:43;100191.38;;;12.81;52.82
73453;BME280;61687;56.232;43.854;2022-09-02T07:42:11;100175.63;;;12.71;52.58
73453;BME280;61687;56.232;43.854;2022-09-02T07:44:37;100189.41;;;12.78;52.27
73453;BME280;61687;56.232;43.854;2022-09-02T07:47:05;100179.19;;;12.79;52.53
73453;BME280;61687;56.232;43.854;2022-09-02T07:49:33;100180.03;;;12.86;52.21
73453;BME280;61687;56.232;43.854;2022-09-02T07:51:59;100182.78;;;12.94;52.01
73453;BME280;61687;56.232;43.854;2022-09-02T07:54:26;100186.31;;;12.94;51.78
73453;BME280;61687;56.232;43.854;2022-09-02T07:56:53;100199.31;;;12.97;51.62
73453;BME280;61687;56.232;43.854;2022-09-02T07:59:21;100196.94;;;12.96;51.58
73453;BME280;61687;56.232;43.854;2022-09-02T08:01:50;100197.31;;;12.91;51.94
73453;BME280;61687;56.232;43.854;2022-09-02T08:04:18;100213.78;;;12.83;52.17
73453;BME280;61687;56.232;43.854;2022-09-02T08:06:45;100218.88;;;12.81;51.73
73453;BME280;61687;56.232;43.854;2022-09-02T08:09:11;100217.31;;;12.84;51.71
73453;BME280;61687;56.232;43.854;2022-09-02T08:11:38;100228.34;;;12.91;51.98
73453;BME280;61687;56.232;43.854;2022-09-02T08:14:08;100225.56;;;12.84;51.63
73453;BME280;61687;56.232;43.854;2022-09-02T08:16:34;100226.00;;;12.90;52.16
73453;BME280;61687;56.232;43.854;2022-09-02T08:19:00;100221.31;;;12.94;52.51
73453;BME280;61687;56.232;43.854;2022-09-02T08:21:26;100234.28;;;12.97;52.87
73453;BME280;61687;56.232;43.854;2022-09-02T08:23:52;100215.78;;;12.90;52.77
73453;BME280;61687;56.232;43.854;2022-09-02T08:26:18;100237.72;;;12.79;52.98
73453;BME280;61687;56.232;43.854;2022-09-02T08:28:45;100233.72;;;12.66;53.46
73453;BME280;61687;56.232;43.854;2022-09-02T08:31:11;100238.47;;;12.69;53.50
73453;BME280;61687;56.232;43.854;2022-09-02T08:33:37;100243.72;;;13.03;53.19
73453;BME280;61687;56.232;43.854;2022-09-02T08:36:07;100239.09;;;13.22;52.96
73453;BME280;61687;56.232;43.854;2022-09-02T08:38:36;100242.28;;;13.31;52.76
73453;BME280;61687;56.232;43.854;2022-09-02T08:41:11;100246.63;;;13.32;51.59
73453;BME280;61687;56.232;43.854;2022-09-02T08:43:40;100241.44;;;13.20;51.93
73453;BME280;61687;56.232;43.854;2022-09-02T08:46:10;100243.81;;;13.17;52.25
73453;BME280;61687;56.232;43.854;2022-09-02T08:48:57;100258.00;;;13.30;52.59
73453;BME280;61687;56.232;43.854;2022-09-02T08:51:34;100266.25;;;13.27;52.78
73453;BME280;61687;56.232;43.854;2022-09-02T08:54:05;100259.53;;;13.21;51.99
73453;BME280;61687;56.232;43.854;2022-09-02T08:56:32;100276.41;;;13.12;51.55
73453;BME280;61687;56.232;43.854;2022-09-02T08:58:58;100274.03;;;13.10;51.86
73453;BME280;61687;56.232;43.854;2022-09-02T09:06:48;100278.94;;;13.50;50.31
73453;BME280;61687;56.232;43.854;2022-09-02T09:15:21;100296.34;;;13.94;48.14
73453;BME280;61687;56.232;43.854;2022-09-02T09:17:58;100303.88;;;14.04;48.17
73453;BME280;61687;56.232;43.854;2022-09-02T09:20:27;100304.66;;;13.97;47.83
73453;BME280;61687;56.232;43.854;2022-09-02T09:22:56;100297.53;;;13.85;48.20
73453;BME280;61687;56.232;43.854;2022-09-02T09:25:23;100304.97;;;13.67;47.46
73453;BME280;61687;56.232;43.854;2022-09-02T09:27:56;100304.50;;;13.43;48.11
73453;BME280;61687;56.232;43.854;2022-09-02T09:30:22;100311.09;;;13.31;49.09
73453;BME280;61687;56.232;43.854;2022-09-02T09:32:51;100323.56;;;13.10;49.44
73453;BME280;61687;56.232;43.854;2022-09-02T09:35:20;100319.47;;;12.86;49.90
73453;BME280;61687;56.232;43.854;2022-09-02T09:37:48;100319.53;;;12.97;50.07
73453;BME280;61687;56.232;43.854;2022-09-02T09:42:46;100324.84;;;13.31;49.90
73453;BME280;61687;56.232;43.854;2022-09-02T09:48:25;100322.31;;;13.89;49.30
73453;BME280;61687;56.232;43.854;2022-09-02T09:53:27;100357.84;;;14.34;48.53
73453;BME280;61687;56.232;43.854;2022-09-02T09:55:56;100333.00;;;14.30;48.17
73453;BME280;61687;56.232;43.854;2022-09-02T09:58:29;100327.88;;;14.14;47.75
73453;BME280;61687;56.232;43.854;2022-09-02T10:00:57;100332.59;;;14.07;47.18
73453;BME280;61687;56.232;43.854;2022-09-02T10:03:26;100327.81;;;13.82;47.45
73453;BME280;61687;56.232;43.854;2022-09-02T10:05:56;100339.59;;;13.71;48.24
73453;BME280;61687;56.232;43.854;2022-09-02T10:08:26;100336.09;;;13.89;48.50
73453;BME280;61687;56.232;43.854;2022-09-02T10:13:31;100331.00;;;13.98;47.18
73453;BME280;61687;56.232;43.854;2022-09-02T10:24:28;100345.22;;;14.11;47.85
73453;BME280;61687;56.232;43.854;2022-09-02T10:27:03;100339.75;;;14.48;47.70
73453;BME280;61687;56.232;43.854;2022-09-02T10:32:15;100339.97;;;15.44;45.31
73453;BME280;61687;56.232;43.854;2022-09-02T10:37:22;100348.66;;;15.53;44.94
73453;BME280;61687;56.232;43.854;2022-09-02T10:45:34;100348.78;;;15.10;44.56
73453;BME280;61687;56.232;43.854;2022-09-02T10:48:30;100353.53;;;14.91;46.02
73453;BME280;61687;56.232;43.854;2022-09-02T10:51:35;100360.22;;;14.83;45.83
73453;BME280;61687;56.232;43.854;2022-09-02T10:54:38;100362.59;;;14.63;45.83
73453;BME280;61687;56.232;43.854;2022-09-02T10:57:13;100363.75;;;14.40;45.97
73453;BME280;61687;56.232;43.854;2022-09-02T11:00:36;100372.78;;;14.19;46.08
73453;BME280;61687;56.232;43.854;2022-09-02T11:02:55;100370.41;;;14.06;45.88
73453;BME280;61687;56.232;43.854;2022-09-02T11:05:44;100377.81;;;13.87;46.51
73453;BME280;61687;56.232;43.854;2022-09-02T11:08:18;100378.13;;;13.68;47.02
73453;BME280;61687;56.232;43.854;2022-09-02T11:10:58;100411.09;;;13.50;47.84
73453;BME280;61687;56.232;43.854;2022-09-02T11:13:51;100393.78;;;12.93;53.66
73453;BME280;61687;56.232;43.854;2022-09-02T11:16:34;100417.00;;;12.51;56.50
73453;BME280;61687;56.232;43.854;2022-09-02T11:21:44;100396.31;;;12.23;58.83
73453;BME280;61687;56.232;43.854;2022-09-02T11:27:04;100390.22;;;12.40;59.26
73453;BME280;61687;56.232;43.854;2022-09-02T11:29:46;100385.28;;;12.60;57.66
73453;BME280;61687;56.232;43.854;2022-09-02T11:32:24;100396.53;;;12.90;55.92
73453;BME280;61687;56.232;43.854;2022-09-02T11:34:56;100389.53;;;13.03;54.49
73453;BME280;61687;56.232;43.854;2022-09-02T11:51:21;100375.53;;;14.29;49.80
73453;BME280;61687;56.232;43.854;2022-09-02T11:53:49;100379.88;;;14.41;48.73
73453;BME280;61687;56.232;43.854;2022-09-02T11:56:38;100387.06;;;14.75;47.64
73453;BME280;61687;56.232;43.854;2022-09-02T11:59:02;100384.69;;;14.88;47.20
73453;BME280;61687;56.232;43.854;2022-09-02T12:01:48;100394.91;;;15.13;47.06
73453;BME280;61687;56.232;43.854;2022-09-02T12:17:34;100427.81;;;13.93;47.91
73453;BME280;61687;56.232;43.854;2022-09-02T12:20:07;100434.41;;;13.67;49.22
73453;BME280;61687;56.232;43.854;2022-09-02T12:22:38;100429.94;;;13.44;50.92
73453;BME280;61687;56.232;43.854;2022-09-02T12:33:31;100472.00;;;12.16;58.52
73453;BME280;61687;56.232;43.854;2022-09-02T12:35:58;100478.03;;;11.99;59.96
73453;BME280;61687;56.232;43.854;2022-09-02T12:38:35;100476.88;;;12.00;63.33
73453;BME280;61687;56.232;43.854;2022-09-02T12:46:24;100468.28;;;12.36;63.51
73453;BME280;61687;56.232;43.854;2022-09-02T12:51:58;100461.72;;;12.48;62.57
73453;BME280;61687;56.232;43.854;2022-09-02T12:54:35;100473.47;;;12.44;63.28
73453;BME280;61687;56.232;43.854;2022-09-02T12:57:02;100470.03;;;12.51;62.95
73453;BME280;61687;56.232;43.854;2022-09-02T12:59:34;100472.44;;;12.56;62.41
73453;BME280;61687;56.232;43.854;2022-09-02T13:05:00;100485.56;;;12.74;62.36
73453;BME280;61687;56.232;43.854;2022-09-02T13:10:45;100486.25;;;13.54;59.88
73453;BME280;61687;56.232;43.854;2022-09-02T13:13:45;100485.91;;;13.63;59.28
73453;BME280;61687;56.232;43.854;2022-09-02T13:16:38;100493.44;;;13.73;58.72
73453;BME280;61687;56.232;43.854;2022-09-02T13:25:02;100498.09;;;13.09;60.82
73453;BME280;61687;56.232;43.854;2022-09-02T13:30:37;100520.84;;;12.65;62.02
73453;BME280;61687;56.232;43.854;2022-09-02T13:33:09;100523.16;;;12.63;62.59
73453;BME280;61687;56.232;43.854;2022-09-02T13:35:38;100517.41;;;14.54;58.14
73453;BME280;61687;56.232;43.854;2022-09-02T13:38:08;100514.28;;;14.70;58.25
73453;BME280;61687;56.232;43.854;2022-09-02T13:40:36;100519.72;;;14.37;58.96
73453;BME280;61687;56.232;43.854;2022-09-02T13:45:41;100520.97;;;13.73;60.52
73453;BME280;61687;56.232;43.854;2022-09-02T13:48:13;100526.00;;;13.60;60.98
73453;BME280;61687;56.232;43.854;2022-09-02T13:50:45;100523.69;;;13.66;60.88
73453;BME280;61687;56.232;43.854;2022-09-02T13:53:17;100522.63;;;13.81;60.64
73453;BME280;61687;56.232;43.854;2022-09-02T13:55:48;100526.19;;;13.85;60.32
73453;BME280;61687;56.232;43.854;2022-09-02T14:00:57;100543.47;;;13.86;60.58
73453;BME280;61687;56.232;43.854;2022-09-02T14:03:24;100550.19;;;13.88;60.58
73453;BME280;61687;56.232;43.854;2022-09-02T14:05:52;100545.25;;;14.23;60.00
73453;BME280;61687;56.232;43.854;2022-09-02T14:08:22;100540.59;;;16.38;54.78
73453;BME280;61687;56.232;43.854;2022-09-02T14:10:49;100557.91;;;17.24;52.46
73453;BME280;61687;56.232;43.854;2022-09-02T14:13:19;100538.13;;;17.71;50.08
73453;BME280;61687;56.232;43.854;2022-09-02T14:15:46;100540.38;;;17.83;50.14
73453;BME280;61687;56.232;43.854;2022-09-02T14:18:22;100542.28;;;16.99;51.85
73453;BME280;61687;56.232;43.854;2022-09-02T14:23:47;100555.00;;;15.35;55.39
73453;BME280;61687;56.232;43.854;2022-09-02T14:27:09;100555.72;;;14.77;56.59
73453;BME280;61687;56.232;43.854;2022-09-02T14:29:06;100562.13;;;14.11;57.28
73453;BME280;61687;56.232;43.854;2022-09-02T14:31:33;100556.75;;;13.66;58.11
73453;BME280;61687;56.232;43.854;2022-09-02T14:34:00;100560.75;;;13.27;58.98
73453;BME280;61687;56.232;43.854;2022-09-02T14:36:35;100577.66;;;12.87;60.01
73453;BME280;61687;56.232;43.854;2022-09-02T14:39:15;100579.31;;;12.62;61.01
73453;BME280;61687;56.232;43.854;2022-09-02T14:41:45;100572.50;;;12.48;61.27
73453;BME280;61687;56.232;43.854;2022-09-02T14:44:31;100572.72;;;12.36;61.63
73453;BME280;61687;56.232;43.854;2022-09-02T14:47:06;100582.72;;;12.21;62.63
73453;BME280;61687;56.232;43.854;2022-09-02T14:49:45;100581.78;;;12.09;62.90
73453;BME280;61687;56.232;43.854;2022-09-02T14:52:19;100582.06;;;12.00;63.14
73453;BME280;61687;56.232;43.854;2022-09-02T14:54:47;100582.41;;;11.99;63.35